sensor_id;sensor_type;location;lat;lon;timestamp;temperature;humidity
16327;DHT22;34812;49.846;9.610;2022-08-25T00:00:06;16.80;99.90
16327;DHT22;34812;49.846;9.610;2022-08-25T00:01:09;16.80;99.90
16327;DHT22;34812;49.846;9.610;2022-08-25T00:02:11;16.70;99.90
16327;DHT22;34812;49.846;9.610;2022-08-25T00:03:12;16.70;99.90
16327;DHT22;34812;49.846;9.610;2022-08-25T00:04:16;16.70;99.90
16327;DHT22;34812;49.846;9.610;2022-08-25T00:05:17;16.70;99.90
16327;DHT22;34812;49.846;9.610;2022-08-25T00:06:19;16.60;99.90
16327;DHT22;34812;49.846;9.610;2022-08-25T00:07:20;16.60;99.90
16327;DHT22;34812;49.846;9.610;2022-08-25T00:08:22;16.60;99.90
16327;DHT22;34812;49.846;9.610;2022-08-25T00:09:25;16.50;99.90
16327;DHT22;34812;49.846;9.610;2022-08-25T00:10:28;16.50;99.90
16327;DHT22;34812;49.846;9.610;2022-08-25T00:11:30;16.40;99.90
16327;DHT22;34812;49.846;9.610;2022-08-25T00:12:34;16.40;99.90
16327;DHT22;34812;49.846;9.610;2022-08-25T00:13:35;16.40;99.90
16327;DHT22;34812;49.846;9.610;2022-08-25T00:14:37;16.30;99.90
16327;DHT22;34812;49.846;9.610;2022-08-25T00:15:39;16.30;99.90
16327;DHT22;34812;49.846;9.610;2022-08-25T00:16:40;16.30;99.90
16327;DHT22;34812;49.846;9.610;2022-08-25T00:17:42;16.30;99.90
16327;DHT22;34812;49.846;9.610;2022-08-25T00:18:45;16.30;99.90
16327;DHT22;34812;49.846;9.610;2022-08-25T00:19:47;16.30;99.90
16327;DHT22;34812;49.846;9.610;2022-08-25T00:20:48;16.30;99.90
16327;DHT22;34812;49.846;9.610;2022-08-25T00:21:50;16.30;99.90
16327;DHT22;34812;49.846;9.610;2022-08-25T00:22:51;16.30;99.90
16327;DHT22;34812;49.846;9.610;2022-08-25T00:23:53;16.30;99.90
16327;DHT22;34812;49.846;9.610;2022-08-25T00:24:54;16.20;99.90
16327;DHT22;34812;49.846;9.610;2022-08-25T00:25:55;16.20;99.90
16327;DHT22;34812;49.846;9.610;2022-08-25T00:26:57;16.20;99.90
16327;DHT22;34812;49.846;9.610;2022-08-25T00:28:02;16.20;99.90
16327;DHT22;34812;49.846;9.610;2022-08-25T00:29:03;16.20;99.90
16327;DHT22;34812;49.846;9.610;2022-08-25T00:30:06;16.10;99.90
16327;DHT22;34812;49.846;9.610;2022-08-25T00:31:10;16.20;99.90
16327;DHT22;34812;49.846;9.610;2022-08-25T00:32:13;16.10;99.90
16327;DHT22;34812;49.846;9.610;2022-08-25T00:33:15;16.10;99.90
16327;DHT22;34812;49.846;9.610;2022-08-25T00:34:22;16.10;99.90
16327;DHT22;34812;49.846;9.610;2022-08-25T00:35:25;16.10;99.90
16327;DHT22;34812;49.846;9.610;2022-08-25T00:36:26;16.10;99.90
16327;DHT22;34812;49.846;9.610;2022-08-25T00:37:29;16.10;99.90
16327;DHT22;34812;49.846;9.610;2022-08-25T00:38:29;16.10;99.90
16327;DHT22;34812;49.846;9.610;2022-08-25T00:39:31;16.00;99.90
16327;DHT22;34812;49.846;9.610;2022-08-25T00:40:32;16.10;99.90
16327;DHT22;34812;49.846;9.610;2022-08-25T00:41:35;16.00;99.90
16327;DHT22;34812;49.846;9.610;2022-08-25T00:42:36;16.00;99.90
16327;DHT22;34812;49.846;9.610;2022-08-25T00:43:47;16.00;99.90
16327;DHT22;34812;49.846;9.610;2022-08-25T00:44:48;16.00;99.90
16327;DHT22;34812;49.846;9.610;2022-08-25T00:45:50;16.00;99.90
16327;DHT22;34812;49.846;9.610;2022-08-25T00:46:53;15.90;99.90
16327;DHT22;34812;49.846;9.610;2022-08-25T00:47:55;15.90;99.90
16327;DHT22;34812;49.846;9.610;2022-08-25T00:48:59;15.90;99.90
16327;DHT22;34812;49.846;9.610;2022-08-25T00:50:04;15.90;99.90
16327;DHT22;34812;49.846;9.610;2022-08-25T00:51:07;15.90;99.90
16327;DHT22;34812;49.846;9.610;2022-08-25T00:52:13;15.90;99.90
16327;DHT22;34812;49.846;9.610;2022-08-25T00:53:16;15.90;99.90
16327;DHT22;34812;49.846;9.610;2022-08-25T00:54:21;15.90;99.90
16327;DHT22;34812;49.846;9.610;2022-08-25T00:55:25;16.00;99.90
16327;DHT22;34812;49.846;9.610;2022-08-25T00:56:28;16.00;99.90
16327;DHT22;34812;49.846;9.610;2022-08-25T00:57:33;16.10;99.90
16327;DHT22;34812;49.846;9.610;2022-08-25T00:58:35;16.10;99.90
16327;DHT22;34812;49.846;9.610;2022-08-25T00:59:39;16.10;99.90
16327;DHT22;34812;49.846;9.610;2022-08-25T01:00:43;16.10;99.90
16327;DHT22;34812;49.846;9.610;2022-08-25T01:01:46;16.10;99.90
16327;DHT22;34812;49.846;9.610;2022-08-25T01:02:47;16.10;99.90
16327;DHT22;34812;49.846;9.610;2022-08-25T01:03:49;16.10;99.90
16327;DHT22;34812;49.846;9.610;2022-08-25T01:04:50;16.10;99.90
16327;DHT22;34812;49.846;9.610;2022-08-25T01:05:53;16.10;99.90
16327;DHT22;34812;49.846;9.610;2022-08-25T01:06:55;16.10;99.90
16327;DHT22;34812;49.846;9.610;2022-08-25T01:07:59;16.10;99.90
16327;DHT22;34812;49.846;9.610;2022-08-25T01:09:02;16.00;99.90
16327;DHT22;34812;49.846;9.610;2022-08-25T01:10:05;16.00;99.90
16327;DHT22;34812;49.846;9.610;2022-08-25T01:11:08;16.00;99.90
16327;DHT22;34812;49.846;9.610;2022-08-25T01:12:10;16.00;99.90
16327;DHT22;34812;49.846;9.610;2022-08-25T01:13:14;16.00;99.90
16327;DHT22;34812;49.846;9.610;2022-08-25T01:14:19;16.00;99.90
16327;DHT22;34812;49.846;9.610;2022-08-25T01:15:23;15.90;99.90
16327;DHT22;34812;49.846;9.610;2022-08-25T01:16:24;16.00;99.90
16327;DHT22;34812;49.846;9.610;2022-08-25T01:17:32;16.00;99.90
16327;DHT22;34812;49.846;9.610;2022-08-25T01:18:46;16.00;99.90
16327;DHT22;34812;49.846;9.610;2022-08-25T01:19:47;15.90;99.90
16327;DHT22;34812;49.846;9.610;2022-08-25T01:20:50;15.90;99.90
16327;DHT22;34812;49.846;9.610;2022-08-25T01:21:53;15.90;99.90
16327;DHT22;34812;49.846;9.610;2022-08-25T01:22:55;15.90;99.90
16327;DHT22;34812;49.846;9.610;2022-08-25T01:23:58;15.90;99.90
16327;DHT22;34812;49.846;9.610;2022-08-25T01:25:03;15.80;99.90
16327;DHT22;34812;49.846;9.610;2022-08-25T01:26:08;15.80;99.90
16327;DHT22;34812;49.846;9.610;2022-08-25T01:27:10;15.80;99.90
16327;DHT22;34812;49.846;9.610;2022-08-25T01:28:11;15.80;99.90
16327;DHT22;34812;49.846;9.610;2022-08-25T01:29:12;15.80;99.90
16327;DHT22;34812;49.846;9.610;2022-08-25T01:30:25;15.80;99.90
16327;DHT22;34812;49.846;9.610;2022-08-25T01:31:26;15.80;99.90
16327;DHT22;34812;49.846;9.610;2022-08-25T01:32:32;15.80;99.90
16327;DHT22;34812;49.846;9.610;2022-08-25T01:33:33;15.70;99.90
16327;DHT22;34812;49.846;9.610;2022-08-25T01:34:37;15.70;99.90
16327;DHT22;34812;49.846;9.610;2022-08-25T01:35:40;15.60;99.90
16327;DHT22;34812;49.846;9.610;2022-08-25T01:36:43;15.60;99.90
16327;DHT22;34812;49.846;9.610;2022-08-25T01:37:44;15.60;99.90
16327;DHT22;34812;49.846;9.610;2022-08-25T01:38:47;15.60;99.90
16327;DHT22;34812;49.846;9.610;2022-08-25T01:39:47;15.60;99.90
16327;DHT22;34812;49.846;9.610;2022-08-25T01:40:49;15.60;99.90
16327;DHT22;34812;49.846;9.610;2022-08-25T01:42:17;15.60;99.90
16327;DHT22;34812;49.846;9.610;2022-08-25T01:43:26;15.60;99.90
16327;DHT22;34812;49.846;9.610;2022-08-25T01:44:30;15.60;99.90
16327;DHT22;34812;49.846;9.610;2022-08-25T01:45:32;15.60;99.90
16327;DHT22;34812;49.846;9.610;2022-08-25T01:46:33;15.60;99.90
16327;DHT22;34812;49.846;9.610;2022-08-25T01:47:35;15.60;99.90
16327;DHT22;34812;49.846;9.610;2022-08-25T01:48:36;15.60;99.90
16327;DHT22;34812;49.846;9.610;2022-08-25T01:49:38;15.50;99.90
16327;DHT22;34812;49.846;9.610;2022-08-25T01:50:40;15.50;99.90
16327;DHT22;34812;49.846;9.610;2022-08-25T01:51:47;15.40;99.90
16327;DHT22;34812;49.846;9.610;2022-08-25T01:52:53;15.40;99.90
16327;DHT22;34812;49.846;9.610;2022-08-25T01:53:55;15.40;99.90
16327;DHT22;34812;49.846;9.610;2022-08-25T01:54:56;15.30;99.90
16327;DHT22;34812;49.846;9.610;2022-08-25T01:55:57;15.30;99.90
16327;DHT22;34812;49.846;9.610;2022-08-25T01:57:01;15.30;99.90
16327;DHT22;34812;49.846;9.610;2022-08-25T01:58:03;15.40;99.90
16327;DHT22;34812;49.846;9.610;2022-08-25T01:59:03;15.40;99.90
16327;DHT22;34812;49.846;9.610;2022-08-25T02:00:07;15.40;99.90
16327;DHT22;34812;49.846;9.610;2022-08-25T02:01:12;15.40;99.90
16327;DHT22;34812;49.846;9.610;2022-08-25T02:02:15;15.40;99.90
16327;DHT22;34812;49.846;9.610;2022-08-25T02:03:16;15.40;99.90
16327;DHT22;34812;49.846;9.610;2022-08-25T02:04:19;15.40;99.90
16327;DHT22;34812;49.846;9.610;2022-08-25T02:05:19;15.40;99.90
16327;DHT22;34812;49.846;9.610;2022-08-25T02:06:24;15.30;99.90
16327;DHT22;34812;49.846;9.610;2022-08-25T02:07:27;15.30;99.90
16327;DHT22;34812;49.846;9.610;2022-08-25T02:08:29;15.40;99.90
16327;DHT22;34812;49.846;9.610;2022-08-25T02:09:30;15.30;99.90
16327;DHT22;34812;49.846;9.610;2022-08-25T02:10:32;15.30;99.90
16327;DHT22;34812;49.846;9.610;2022-08-25T02:11:34;15.20;99.90
16327;DHT22;34812;49.846;9.610;2022-08-25T02:12:37;15.20;99.90
16327;DHT22;34812;49.846;9.610;2022-08-25T02:13:38;15.20;99.90
16327;DHT22;34812;49.846;9.610;2022-08-25T02:14:40;15.10;99.90
16327;DHT22;34812;49.846;9.610;2022-08-25T02:15:41;15.10;99.90
16327;DHT22;34812;49.846;9.610;2022-08-25T02:16:45;15.00;99.90
16327;DHT22;34812;49.846;9.610;2022-08-25T02:17:48;15.00;99.90
16327;DHT22;34812;49.846;9.610;2022-08-25T02:18:50;15.00;99.90
16327;DHT22;34812;49.846;9.610;2022-08-25T02:19:51;15.00;99.90
16327;DHT22;34812;49.846;9.610;2022-08-25T02:20:52;15.00;99.90
16327;DHT22;34812;49.846;9.610;2022-08-25T02:21:53;15.10;99.90
16327;DHT22;34812;49.846;9.610;2022-08-25T02:22:56;15.10;99.90
16327;DHT22;34812;49.846;9.610;2022-08-25T02:23:57;15.20;99.90
16327;DHT22;34812;49.846;9.610;2022-08-25T02:24:59;15.10;99.90
16327;DHT22;34812;49.846;9.610;2022-08-25T02:25:59;15.20;99.90
16327;DHT22;34812;49.846;9.610;2022-08-25T02:27:01;15.20;99.90
16327;DHT22;34812;49.846;9.610;2022-08-25T02:28:04;15.10;99.90
16327;DHT22;34812;49.846;9.610;2022-08-25T02:29:06;15.10;99.90
16327;DHT22;34812;49.846;9.610;2022-08-25T02:30:08;15.10;99.90
16327;DHT22;34812;49.846;9.610;2022-08-25T02:31:10;15.10;99.90
16327;DHT22;34812;49.846;9.610;2022-08-25T02:32:11;15.00;99.90
16327;DHT22;34812;49.846;9.610;2022-08-25T02:33:13;15.00;99.90
16327;DHT22;34812;49.846;9.610;2022-08-25T02:34:14;15.10;99.90
16327;DHT22;34812;49.846;9.610;2022-08-25T02:35:16;15.10;99.90
16327;DHT22;34812;49.846;9.610;2022-08-25T02:36:17;15.00;99.90
16327;DHT22;34812;49.846;9.610;2022-08-25T02:37:19;15.10;99.90
16327;DHT22;34812;49.846;9.610;2022-08-25T02:38:21;15.10;99.90
16327;DHT22;34812;49.846;9.610;2022-08-25T02:39:23;15.00;99.90
16327;DHT22;34812;49.846;9.610;2022-08-25T02:40:24;15.00;99.90
16327;DHT22;34812;49.846;9.610;2022-08-25T02:41:27;15.00;99.90
16327;DHT22;34812;49.846;9.610;2022-08-25T02:42:28;15.00;99.90
16327;DHT22;34812;49.846;9.610;2022-08-25T02:43:30;15.10;99.90
16327;DHT22;34812;49.846;9.610;2022-08-25T02:44:30;15.00;99.90
16327;DHT22;34812;49.846;9.610;2022-08-25T02:45:32;15.00;99.90
16327;DHT22;34812;49.846;9.610;2022-08-25T02:46:33;14.90;99.90
16327;DHT22;34812;49.846;9.610;2022-08-25T02:47:35;14.90;99.90
16327;DHT22;34812;49.846;9.610;2022-08-25T02:48:37;14.90;99.90
16327;DHT22;34812;49.846;9.610;2022-08-25T02:49:38;14.80;99.90
16327;DHT22;34812;49.846;9.610;2022-08-25T02:50:39;14.80;99.90
16327;DHT22;34812;49.846;9.610;2022-08-25T02:51:41;14.70;99.90
16327;DHT22;34812;49.846;9.610;2022-08-25T02:52:42;14.70;99.90
16327;DHT22;34812;49.846;9.610;2022-08-25T02:53:46;14.70;99.90
16327;DHT22;34812;49.846;9.610;2022-08-25T02:54:47;14.60;99.90
16327;DHT22;34812;49.846;9.610;2022-08-25T02:55:49;14.60;99.90
16327;DHT22;34812;49.846;9.610;2022-08-25T02:56:49;14.70;99.90
16327;DHT22;34812;49.846;9.610;2022-08-25T02:57:51;14.60;99.90
16327;DHT22;34812;49.846;9.610;2022-08-25T02:58:52;14.60;99.90
16327;DHT22;34812;49.846;9.610;2022-08-25T02:59:53;14.60;99.90
16327;DHT22;34812;49.846;9.610;2022-08-25T03:00:54;14.50;99.90
16327;DHT22;34812;49.846;9.610;2022-08-25T03:01:56;14.50;99.90
16327;DHT22;34812;49.846;9.610;2022-08-25T03:02:57;14.50;99.90
16327;DHT22;34812;49.846;9.610;2022-08-25T03:04:00;14.50;99.90
16327;DHT22;34812;49.846;9.610;2022-08-25T03:05:01;14.50;99.90
16327;DHT22;34812;49.846;9.610;2022-08-25T03:06:03;14.40;99.90
16327;DHT22;34812;49.846;9.610;2022-08-25T03:07:03;14.50;99.90
16327;DHT22;34812;49.846;9.610;2022-08-25T03:08:06;14.50;99.90
16327;DHT22;34812;49.846;9.610;2022-08-25T03:09:09;14.50;99.90
16327;DHT22;34812;49.846;9.610;2022-08-25T03:10:13;14.50;99.90
16327;DHT22;34812;49.846;9.610;2022-08-25T03:11:14;14.50;99.90
16327;DHT22;34812;49.846;9.610;2022-08-25T03:12:17;14.40;99.90
16327;DHT22;34812;49.846;9.610;2022-08-25T03:13:18;14.40;99.90
16327;DHT22;34812;49.846;9.610;2022-08-25T03:14:19;14.50;99.90
16327;DHT22;34812;49.846;9.610;2022-08-25T03:15:20;14.50;99.90
16327;DHT22;34812;49.846;9.610;2022-08-25T03:16:25;14.40;99.90
16327;DHT22;34812;49.846;9.610;2022-08-25T03:17:25;14.40;99.90
16327;DHT22;34812;49.846;9.610;2022-08-25T03:18:27;14.40;99.90
16327;DHT22;34812;49.846;9.610;2022-08-25T03:19:28;14.40;99.90
16327;DHT22;34812;49.846;9.610;2022-08-25T03:20:30;14.30;99.90
16327;DHT22;34812;49.846;9.610;2022-08-25T03:21:32;14.30;99.90
16327;DHT22;34812;49.846;9.610;2022-08-25T03:22:34;14.40;99.90
16327;DHT22;34812;49.846;9.610;2022-08-25T03:23:35;14.40;99.90
16327;DHT22;34812;49.846;9.610;2022-08-25T03:24:38;14.40;99.90
16327;DHT22;34812;49.846;9.610;2022-08-25T03:25:39;14.50;99.90
16327;DHT22;34812;49.846;9.610;2022-08-25T03:26:59;14.50;99.90
16327;DHT22;34812;49.846;9.610;2022-08-25T03:28:00;14.50;99.90
16327;DHT22;34812;49.846;9.610;2022-08-25T03:29:02;14.50;99.90
16327;DHT22;34812;49.846;9.610;2022-08-25T03:30:06;14.50;99.90
16327;DHT22;34812;49.846;9.610;2022-08-25T03:31:08;14.50;99.90
16327;DHT22;34812;49.846;9.610;2022-08-25T03:32:09;14.50;99.90
16327;DHT22;34812;49.846;9.610;2022-08-25T03:33:11;14.40;99.90
16327;DHT22;34812;49.846;9.610;2022-08-25T03:34:12;14.40;99.90
16327;DHT22;34812;49.846;9.610;2022-08-25T03:35:16;14.40;99.90
16327;DHT22;34812;49.846;9.610;2022-08-25T03:36:16;14.40;99.90
16327;DHT22;34812;49.846;9.610;2022-08-25T03:37:18;14.30;99.90
16327;DHT22;34812;49.846;9.610;2022-08-25T03:38:19;14.30;99.90
16327;DHT22;34812;49.846;9.610;2022-08-25T03:39:22;14.30;99.90
16327;DHT22;34812;49.846;9.610;2022-08-25T03:40:25;14.30;99.90
16327;DHT22;34812;49.846;9.610;2022-08-25T03:41:29;14.20;99.90
16327;DHT22;34812;49.846;9.610;2022-08-25T03:42:32;14.30;99.90
16327;DHT22;34812;49.846;9.610;2022-08-25T03:43:34;14.30;99.90
16327;DHT22;34812;49.846;9.610;2022-08-25T03:44:34;14.30;99.90
16327;DHT22;34812;49.846;9.610;2022-08-25T03:45:39;14.30;99.90
16327;DHT22;34812;49.846;9.610;2022-08-25T03:46:42;14.40;99.90
16327;DHT22;34812;49.846;9.610;2022-08-25T03:47:46;14.40;99.90
16327;DHT22;34812;49.846;9.610;2022-08-25T03:48:47;14.40;99.90
16327;DHT22;34812;49.846;9.610;2022-08-25T03:49:49;14.40;99.90
16327;DHT22;34812;49.846;9.610;2022-08-25T03:50:51;14.40;99.90
16327;DHT22;34812;49.846;9.610;2022-08-25T03:51:54;14.40;99.90
16327;DHT22;34812;49.846;9.610;2022-08-25T03:52:55;14.50;99.90
16327;DHT22;34812;49.846;9.610;2022-08-25T03:53:57;14.50;99.90
16327;DHT22;34812;49.846;9.610;2022-08-25T03:54:59;14.50;99.90
16327;DHT22;34812;49.846;9.610;2022-08-25T03:56:02;14.50;99.90
16327;DHT22;34812;49.846;9.610;2022-08-25T03:57:04;14.50;99.90
16327;DHT22;34812;49.846;9.610;2022-08-25T03:58:06;14.50;99.90
16327;DHT22;34812;49.846;9.610;2022-08-25T03:59:06;14.50;99.90
16327;DHT22;34812;49.846;9.610;2022-08-25T04:00:10;14.50;99.90
16327;DHT22;34812;49.846;9.610;2022-08-25T04:01:11;14.40;99.90
16327;DHT22;34812;49.846;9.610;2022-08-25T04:02:13;14.40;99.90
16327;DHT22;34812;49.846;9.610;2022-08-25T04:03:14;14.40;99.90
16327;DHT22;34812;49.846;9.610;2022-08-25T04:04:15;14.30;99.90
16327;DHT22;34812;49.846;9.610;2022-08-25T04:05:16;14.30;99.90
16327;DHT22;34812;49.846;9.610;2022-08-25T04:06:21;14.30;99.90
16327;DHT22;34812;49.846;9.610;2022-08-25T04:07:22;14.30;99.90
16327;DHT22;34812;49.846;9.610;2022-08-25T04:08:23;14.30;99.90
16327;DHT22;34812;49.846;9.610;2022-08-25T04:09:25;14.40;99.90
16327;DHT22;34812;49.846;9.610;2022-08-25T04:10:25;14.30;99.90
16327;DHT22;34812;49.846;9.610;2022-08-25T04:11:28;14.30;99.90
16327;DHT22;34812;49.846;9.610;2022-08-25T04:12:29;14.30;99.90
16327;DHT22;34812;49.846;9.610;2022-08-25T04:13:31;14.30;99.90
16327;DHT22;34812;49.846;9.610;2022-08-25T04:14:31;14.20;99.90
16327;DHT22;34812;49.846;9.610;2022-08-25T04:15:34;14.20;99.90
16327;DHT22;34812;49.846;9.610;2022-08-25T04:16:35;14.20;99.90
16327;DHT22;34812;49.846;9.610;2022-08-25T04:17:38;14.20;99.90
16327;DHT22;34812;49.846;9.610;2022-08-25T04:18:39;14.10;99.90
16327;DHT22;34812;49.846;9.610;2022-08-25T04:19:41;14.10;99.90
16327;DHT22;34812;49.846;9.610;2022-08-25T04:20:42;14.10;99.90
16327;DHT22;34812;49.846;9.610;2022-08-25T04:21:43;14.10;99.90
16327;DHT22;34812;49.846;9.610;2022-08-25T04:22:44;14.00;99.90
16327;DHT22;34812;49.846;9.610;2022-08-25T04:23:47;14.00;99.90
16327;DHT22;34812;49.846;9.610;2022-08-25T04:24:48;14.00;99.90
16327;DHT22;34812;49.846;9.610;2022-08-25T04:25:49;14.00;99.90
16327;DHT22;34812;49.846;9.610;2022-08-25T04:26:52;14.00;99.90
16327;DHT22;34812;49.846;9.610;2022-08-25T04:27:53;14.00;99.90
16327;DHT22;34812;49.846;9.610;2022-08-25T04:28:56;14.10;99.90
16327;DHT22;34812;49.846;9.610;2022-08-25T04:29:59;14.00;99.90
16327;DHT22;34812;49.846;9.610;2022-08-25T04:31:00;14.00;99.90
16327;DHT22;34812;49.846;9.610;2022-08-25T04:32:02;14.10;99.90
16327;DHT22;34812;49.846;9.610;2022-08-25T04:33:02;14.10;99.90
16327;DHT22;34812;49.846;9.610;2022-08-25T04:34:05;14.10;99.90
16327;DHT22;34812;49.846;9.610;2022-08-25T04:35:06;14.10;99.90
16327;DHT22;34812;49.846;9.610;2022-08-25T04:36:09;14.20;99.90
16327;DHT22;34812;49.846;9.610;2022-08-25T04:37:11;14.20;99.90
16327;DHT22;34812;49.846;9.610;2022-08-25T04:38:12;14.20;99.90
16327;DHT22;34812;49.846;9.610;2022-08-25T04:39:13;14.20;99.90
16327;DHT22;34812;49.846;9.610;2022-08-25T04:40:15;14.20;99.90
16327;DHT22;34812;49.846;9.610;2022-08-25T04:41:17;14.10;99.90
16327;DHT22;34812;49.846;9.610;2022-08-25T04:42:21;14.10;99.90
16327;DHT22;34812;49.846;9.610;2022-08-25T04:43:22;14.10;99.90
16327;DHT22;34812;49.846;9.610;2022-08-25T04:44:24;14.10;99.90
16327;DHT22;34812;49.846;9.610;2022-08-25T04:45:24;14.10;99.90
16327;DHT22;34812;49.846;9.610;2022-08-25T04:46:29;14.10;99.90
16327;DHT22;34812;49.846;9.610;2022-08-25T04:47:30;14.20;99.90
16327;DHT22;34812;49.846;9.610;2022-08-25T04:48:37;14.20;99.90
16327;DHT22;34812;49.846;9.610;2022-08-25T04:49:39;14.30;99.90
16327;DHT22;34812;49.846;9.610;2022-08-25T04:50:41;14.30;99.90
16327;DHT22;34812;49.846;9.610;2022-08-25T04:51:41;14.30;99.90
16327;DHT22;34812;49.846;9.610;2022-08-25T04:52:43;14.30;99.90
16327;DHT22;34812;49.846;9.610;2022-08-25T04:53:46;14.30;99.90
16327;DHT22;34812;49.846;9.610;2022-08-25T04:54:46;14.40;99.90
16327;DHT22;34812;49.846;9.610;2022-08-25T04:55:48;14.40;99.90
16327;DHT22;34812;49.846;9.610;2022-08-25T04:56:50;14.40;99.90
16327;DHT22;34812;49.846;9.610;2022-08-25T04:57:53;14.50;99.90
16327;DHT22;34812;49.846;9.610;2022-08-25T04:58:54;14.50;99.90
16327;DHT22;34812;49.846;9.610;2022-08-25T04:59:57;14.50;99.90
16327;DHT22;34812;49.846;9.610;2022-08-25T05:01:01;14.50;99.90
16327;DHT22;34812;49.846;9.610;2022-08-25T05:02:03;14.50;99.90
16327;DHT22;34812;49.846;9.610;2022-08-25T05:03:06;14.50;99.90
16327;DHT22;34812;49.846;9.610;2022-08-25T05:04:09;14.50;99.90
16327;DHT22;34812;49.846;9.610;2022-08-25T05:05:11;14.50;99.90
16327;DHT22;34812;49.846;9.610;2022-08-25T05:06:13;14.50;99.90
16327;DHT22;34812;49.846;9.610;2022-08-25T05:07:14;14.50;99.90
16327;DHT22;34812;49.846;9.610;2022-08-25T05:08:15;14.50;99.90
16327;DHT22;34812;49.846;9.610;2022-08-25T05:09:17;14.60;99.90
16327;DHT22;34812;49.846;9.610;2022-08-25T05:10:18;14.60;99.90
16327;DHT22;34812;49.846;9.610;2022-08-25T05:11:19;14.60;99.90
16327;DHT22;34812;49.846;9.610;2022-08-25T05:12:21;14.60;99.90
16327;DHT22;34812;49.846;9.610;2022-08-25T05:13:25;14.60;99.90
16327;DHT22;34812;49.846;9.610;2022-08-25T05:14:26;14.60;99.90
16327;DHT22;34812;49.846;9.610;2022-08-25T05:15:28;14.60;99.90
16327;DHT22;34812;49.846;9.610;2022-08-25T05:16:52;14.60;99.90
16327;DHT22;34812;49.846;9.610;2022-08-25T05:17:54;14.60;99.90
16327;DHT22;34812;49.846;9.610;2022-08-25T05:18:55;14.60;99.90
16327;DHT22;34812;49.846;9.610;2022-08-25T05:19:57;14.50;99.90
16327;DHT22;34812;49.846;9.610;2022-08-25T05:21:01;14.50;99.90
16327;DHT22;34812;49.846;9.610;2022-08-25T05:22:02;14.50;99.90
16327;DHT22;34812;49.846;9.610;2022-08-25T05:23:04;14.50;99.90
16327;DHT22;34812;49.846;9.610;2022-08-25T05:24:05;14.50;99.90
16327;DHT22;34812;49.846;9.610;2022-08-25T05:25:07;14.50;99.90
16327;DHT22;34812;49.846;9.610;2022-08-25T05:26:10;14.60;99.90
16327;DHT22;34812;49.846;9.610;2022-08-25T05:27:13;14.60;99.90
16327;DHT22;34812;49.846;9.610;2022-08-25T05:28:14;14.60;99.90
16327;DHT22;34812;49.846;9.610;2022-08-25T05:29:16;14.60;99.90
16327;DHT22;34812;49.846;9.610;2022-08-25T05:30:19;14.60;99.90
16327;DHT22;34812;49.846;9.610;2022-08-25T05:31:20;14.70;99.90
16327;DHT22;34812;49.846;9.610;2022-08-25T05:32:22;14.80;99.90
16327;DHT22;34812;49.846;9.610;2022-08-25T05:33:24;14.80;99.90
16327;DHT22;34812;49.846;9.610;2022-08-25T05:34:25;14.80;99.90
16327;DHT22;34812;49.846;9.610;2022-08-25T05:35:27;14.80;99.90
16327;DHT22;34812;49.846;9.610;2022-08-25T05:36:28;14.90;99.90
16327;DHT22;34812;49.846;9.610;2022-08-25T05:37:29;14.90;99.90
16327;DHT22;34812;49.846;9.610;2022-08-25T05:38:30;14.90;99.90
16327;DHT22;34812;49.846;9.610;2022-08-25T05:39:32;14.90;99.90
16327;DHT22;34812;49.846;9.610;2022-08-25T05:40:33;14.90;99.90
16327;DHT22;34812;49.846;9.610;2022-08-25T05:41:35;15.00;99.90
16327;DHT22;34812;49.846;9.610;2022-08-25T05:42:36;15.00;99.90
16327;DHT22;34812;49.846;9.610;2022-08-25T05:43:39;15.10;99.90
16327;DHT22;34812;49.846;9.610;2022-08-25T05:44:41;15.20;99.90
16327;DHT22;34812;49.846;9.610;2022-08-25T05:45:43;15.20;99.90
16327;DHT22;34812;49.846;9.610;2022-08-25T05:46:44;15.20;99.90
16327;DHT22;34812;49.846;9.610;2022-08-25T05:47:46;15.20;99.90
16327;DHT22;34812;49.846;9.610;2022-08-25T05:48:48;15.30;99.90
16327;DHT22;34812;49.846;9.610;2022-08-25T05:49:50;15.30;99.90
16327;DHT22;34812;49.846;9.610;2022-08-25T05:50:51;15.40;99.90
16327;DHT22;34812;49.846;9.610;2022-08-25T05:51:52;15.40;99.90
16327;DHT22;34812;49.846;9.610;2022-08-25T05:52:54;15.40;99.90
16327;DHT22;34812;49.846;9.610;2022-08-25T05:53:55;15.50;99.90
16327;DHT22;34812;49.846;9.610;2022-08-25T05:54:56;15.50;99.90
16327;DHT22;34812;49.846;9.610;2022-08-25T05:55:59;15.60;99.90
16327;DHT22;34812;49.846;9.610;2022-08-25T05:57:00;15.60;99.90
16327;DHT22;34812;49.846;9.610;2022-08-25T05:58:02;15.70;99.90
16327;DHT22;34812;49.846;9.610;2022-08-25T05:59:03;15.70;99.90
16327;DHT22;34812;49.846;9.610;2022-08-25T06:00:08;15.80;99.90
16327;DHT22;34812;49.846;9.610;2022-08-25T06:01:09;15.80;99.90
16327;DHT22;34812;49.846;9.610;2022-08-25T06:02:36;15.80;99.90
16327;DHT22;34812;49.846;9.610;2022-08-25T06:03:43;15.90;99.90
16327;DHT22;34812;49.846;9.610;2022-08-25T06:04:44;15.90;99.90
16327;DHT22;34812;49.846;9.610;2022-08-25T06:05:45;16.00;99.90
16327;DHT22;34812;49.846;9.610;2022-08-25T06:06:46;16.00;99.90
16327;DHT22;34812;49.846;9.610;2022-08-25T06:07:51;16.10;99.90
16327;DHT22;34812;49.846;9.610;2022-08-25T06:08:52;16.10;99.90
16327;DHT22;34812;49.846;9.610;2022-08-25T06:09:53;16.10;99.90
16327;DHT22;34812;49.846;9.610;2022-08-25T06:10:54;16.20;99.90
16327;DHT22;34812;49.846;9.610;2022-08-25T06:11:56;16.20;99.90
16327;DHT22;34812;49.846;9.610;2022-08-25T06:12:57;16.30;99.90
16327;DHT22;34812;49.846;9.610;2022-08-25T06:13:58;16.30;99.90
16327;DHT22;34812;49.846;9.610;2022-08-25T06:14:59;16.30;99.90
16327;DHT22;34812;49.846;9.610;2022-08-25T06:16:02;16.30;99.90
16327;DHT22;34812;49.846;9.610;2022-08-25T06:17:03;16.40;99.90
16327;DHT22;34812;49.846;9.610;2022-08-25T06:18:05;16.40;99.90
16327;DHT22;34812;49.846;9.610;2022-08-25T06:19:08;16.50;99.90
16327;DHT22;34812;49.846;9.610;2022-08-25T06:20:11;16.50;99.90
16327;DHT22;34812;49.846;9.610;2022-08-25T06:21:14;16.60;99.90
16327;DHT22;34812;49.846;9.610;2022-08-25T06:22:15;16.60;99.90
16327;DHT22;34812;49.846;9.610;2022-08-25T06:23:17;16.70;99.90
16327;DHT22;34812;49.846;9.610;2022-08-25T06:24:18;16.70;99.90
16327;DHT22;34812;49.846;9.610;2022-08-25T06:25:22;16.80;99.90
16327;DHT22;34812;49.846;9.610;2022-08-25T06:26:24;16.80;99.90
16327;DHT22;34812;49.846;9.610;2022-08-25T06:27:25;16.90;99.90
16327;DHT22;34812;49.846;9.610;2022-08-25T06:28:26;16.90;99.90
16327;DHT22;34812;49.846;9.610;2022-08-25T06:29:27;17.00;99.90
16327;DHT22;34812;49.846;9.610;2022-08-25T06:30:29;17.00;99.90
16327;DHT22;34812;49.846;9.610;2022-08-25T06:31:32;17.00;99.90
16327;DHT22;34812;49.846;9.610;2022-08-25T06:32:34;17.10;99.90
16327;DHT22;34812;49.846;9.610;2022-08-25T06:33:36;17.10;99.90